Portada
METAR-TAF:

METAR-TAF

Aeropuertos :

Gwadar, Pakistán

latitud: 25-13-59N, longitud: 062-19-46E, altitud: 29 m

METAR: falta

Hora: 16:39 (11:39 UTC)

Pronóstico

El informe se hizo hace 7 horas y 39 minutos, a las 04:00 UTC
Pronóstico válido del 20 a las 06 UTC al 21 a las 06 UTC
Viento 8 kt del oeste con ráfagas de 18 kt
Visibilidad: 5000 m
calima
A partir de las UTC
Viento 8 kt del noroeste
Visibilidad: 4000 m
calima
Temporalmente
del 21 a las 00 UTC al 21 a las 04 UTC
Viento 3 kt con dirección variable
Visibilidad: 2500 m
Nubes dispersas a una altura de 3000 ft
neblina

TAF: OPGD 200400Z 2006/2106 26008G18KT 5000 HZ NSC FM 201700 31008KT 4000 HZ NSC TEMPO 2100/2104 VRB03KT 2500 BR SCT030

Observaciones y pronósticos meteorológicos de más de 4000 aeropuertos (mensajes METAR y TAF).

Los puntos amarillos y rojos representan las estaciones disponibles.

Ponga el ratón en el punto deseado para ver el nombre de la estación.

Haga clic para ver las observaciones y los pronósticos meteorológicos.

Para cambiar el mapa : haga clic en los botones verdes con una cruz de color negro para hacer un zoom, en el botón verde con un guión para alejar o en las flechas verdes para mapas adyacentes.


METAR-TAF: